createdAt,value
2018-09-23T00:01:58.960Z,14.70
2018-09-23T00:04:27.041Z,14.60
2018-09-23T00:06:55.133Z,14.60
2018-09-23T00:09:23.207Z,14.60
2018-09-23T00:11:51.287Z,14.60
2018-09-23T00:14:19.362Z,14.60
2018-09-23T00:16:47.449Z,14.60
2018-09-23T00:19:15.526Z,14.60
2018-09-23T00:21:43.610Z,14.60
2018-09-23T00:24:11.682Z,14.60
2018-09-23T00:26:39.758Z,14.50
2018-09-23T00:29:07.851Z,14.50
2018-09-23T00:31:35.921Z,14.40
2018-09-23T00:34:04.135Z,14.30
2018-09-23T00:36:32.202Z,14.30
2018-09-23T00:39:00.285Z,14.30
2018-09-23T00:41:28.367Z,14.30
2018-09-23T00:43:56.438Z,14.30
2018-09-23T00:46:24.507Z,14.30
2018-09-23T00:48:52.581Z,14.30
2018-09-23T00:51:20.652Z,14.30
2018-09-23T00:53:48.730Z,14.20
2018-09-23T00:56:16.794Z,14.20
2018-09-23T00:58:44.916Z,14.20
2018-09-23T01:01:12.964Z,14.10
2018-09-23T01:03:41.044Z,14.10
2018-09-23T01:06:09.124Z,14.10
2018-09-23T01:08:37.207Z,14.10
2018-09-23T01:11:05.446Z,14.00
2018-09-23T01:13:33.522Z,13.90
2018-09-23T01:16:01.615Z,13.90
2018-09-23T01:18:29.706Z,14.00
2018-09-23T01:20:57.806Z,14.00
2018-09-23T01:23:25.894Z,13.90
2018-09-23T01:25:53.973Z,13.90
2018-09-23T01:28:22.062Z,13.90
2018-09-23T01:30:50.178Z,14.00
2018-09-23T01:33:18.266Z,14.00
2018-09-23T01:35:46.338Z,14.00
2018-09-23T01:38:14.430Z,14.10
2018-09-23T01:40:42.526Z,14.10
2018-09-23T01:43:10.621Z,14.10
2018-09-23T01:45:38.697Z,14.10
2018-09-23T01:48:06.782Z,14.00
2018-09-23T01:50:34.866Z,13.80
2018-09-23T01:53:02.958Z,13.80
2018-09-23T01:55:31.050Z,13.70
2018-09-23T01:57:59.130Z,13.60
2018-09-23T02:00:27.209Z,13.50
2018-09-23T02:02:55.301Z,13.50
2018-09-23T02:05:23.390Z,13.50
2018-09-23T02:07:51.715Z,13.50
2018-09-23T02:10:19.798Z,13.50
2018-09-23T02:12:47.889Z,13.50
2018-09-23T02:15:16.034Z,13.40
2018-09-23T02:17:44.122Z,13.40
2018-09-23T02:20:12.483Z,13.40
2018-09-23T02:22:39.885Z,13.40
2018-09-23T02:25:07.962Z,13.40
2018-09-23T02:27:36.059Z,13.30
2018-09-23T02:30:04.152Z,13.40
2018-09-23T02:32:32.226Z,13.40
2018-09-23T02:35:00.495Z,13.40
2018-09-23T02:37:28.574Z,13.40
2018-09-23T02:39:56.658Z,13.30
2018-09-23T02:42:24.770Z,13.30
2018-09-23T02:44:52.863Z,13.20
2018-09-23T02:47:20.966Z,13.20
2018-09-23T02:49:49.062Z,13.20
2018-09-23T02:52:17.146Z,13.20
2018-09-23T02:54:45.238Z,13.20
2018-09-23T02:57:13.318Z,13.20
2018-09-23T02:59:41.401Z,13.20
2018-09-23T03:02:09.489Z,13.20
2018-09-23T03:04:37.578Z,13.20
2018-09-23T03:07:05.692Z,13.20
2018-09-23T03:09:33.786Z,13.10
2018-09-23T03:12:01.929Z,13.10
2018-09-23T03:14:30.014Z,13.10
2018-09-23T03:16:58.106Z,13.00
2018-09-23T03:19:26.610Z,13.10
2018-09-23T03:21:54.698Z,13.10
2018-09-23T03:24:22.807Z,13.10
2018-09-23T03:26:50.891Z,13.10
2018-09-23T03:29:18.982Z,13.00
2018-09-23T03:31:47.059Z,13.00
2018-09-23T03:34:15.150Z,13.00
2018-09-23T03:36:43.239Z,12.90
2018-09-23T03:39:11.330Z,12.90
2018-09-23T03:41:39.420Z,12.90
2018-09-23T03:44:08.108Z,12.80
2018-09-23T03:46:36.186Z,12.90
2018-09-23T03:49:04.270Z,12.80
2018-09-23T03:51:32.351Z,12.80
2018-09-23T03:54:00.463Z,12.80
2018-09-23T03:56:28.569Z,12.90
2018-09-23T03:58:56.673Z,12.90
2018-09-23T04:01:24.766Z,12.90
2018-09-23T04:03:52.871Z,12.90
2018-09-23T04:06:20.960Z,12.90
2018-09-23T04:08:49.049Z,12.90
2018-09-23T04:11:17.123Z,12.90
2018-09-23T04:13:45.209Z,12.90
2018-09-23T04:16:13.298Z,12.90
2018-09-23T04:18:41.390Z,12.90
2018-09-23T04:21:09.475Z,12.90
2018-09-23T04:23:37.557Z,12.90
2018-09-23T04:26:05.942Z,12.90
2018-09-23T04:28:34.030Z,13.00
2018-09-23T04:31:02.094Z,13.00
2018-09-23T04:33:30.173Z,13.00
2018-09-23T04:35:58.319Z,13.00
2018-09-23T04:38:26.343Z,13.00
2018-09-23T04:40:54.421Z,13.00
2018-09-23T04:43:22.507Z,13.00
2018-09-23T04:45:50.594Z,13.00
2018-09-23T04:48:18.663Z,13.00
2018-09-23T04:50:46.743Z,13.00
2018-09-23T04:53:14.814Z,13.00
2018-09-23T04:55:42.908Z,13.00
2018-09-23T04:58:10.990Z,13.00
2018-09-23T05:00:39.117Z,13.10
2018-09-23T05:03:07.307Z,13.10
2018-09-23T05:05:35.590Z,13.20
2018-09-23T05:08:03.674Z,13.20
2018-09-23T05:10:31.758Z,13.20
2018-09-23T05:13:00.207Z,13.20
2018-09-23T05:15:28.294Z,13.20
2018-09-23T05:17:56.450Z,13.30
2018-09-23T05:20:24.550Z,13.30
2018-09-23T05:22:52.629Z,13.40
2018-09-23T05:25:20.723Z,13.40
2018-09-23T05:27:48.802Z,13.50
2018-09-23T05:30:16.891Z,13.50
2018-09-23T05:32:44.974Z,13.60
2018-09-23T05:35:13.072Z,13.60
2018-09-23T05:37:41.145Z,13.70
2018-09-23T05:40:09.233Z,13.70
2018-09-23T05:42:37.317Z,13.80
2018-09-23T05:45:06.419Z,13.80
2018-09-23T05:47:34.511Z,13.90
2018-09-23T05:50:02.611Z,13.90
2018-09-23T05:52:30.682Z,14.00
2018-09-23T05:54:58.777Z,14.10
2018-09-23T05:57:26.860Z,14.10
2018-09-23T05:59:54.957Z,14.20
2018-09-23T06:02:23.051Z,14.30
2018-09-23T06:04:51.138Z,14.40
2018-09-23T06:07:19.233Z,14.50
2018-09-23T06:09:47.323Z,14.60
2018-09-23T06:12:15.630Z,14.60
2018-09-23T06:14:44.592Z,14.70
2018-09-23T06:17:12.665Z,14.80
2018-09-23T06:19:40.762Z,14.90
2018-09-23T06:22:08.839Z,15.00
2018-09-23T06:24:37.006Z,15.10
2018-09-23T06:27:05.095Z,15.20
2018-09-23T06:29:33.178Z,15.30
2018-09-23T06:32:01.262Z,15.40
2018-09-23T06:34:29.386Z,15.40
2018-09-23T06:36:57.505Z,15.60
2018-09-23T06:39:25.558Z,15.60
2018-09-23T06:41:53.643Z,15.70
2018-09-23T06:44:21.731Z,15.80
2018-09-23T06:46:49.817Z,15.80
2018-09-23T06:49:17.894Z,15.90
2018-09-23T06:51:45.999Z,15.90
2018-09-23T06:54:14.079Z,16.00
2018-09-23T06:56:42.171Z,16.10
2018-09-23T06:59:10.254Z,16.10
2018-09-23T07:01:38.338Z,16.20
2018-09-23T07:04:06.922Z,16.30
2018-09-23T07:06:35.003Z,16.30
2018-09-23T07:09:03.206Z,16.40
2018-09-23T07:11:31.293Z,16.50
2018-09-23T07:13:59.366Z,16.50
2018-09-23T07:16:27.458Z,16.70
2018-09-23T07:18:55.536Z,16.70
2018-09-23T07:21:23.622Z,16.80
2018-09-23T07:23:51.802Z,17.00
2018-09-23T07:26:19.784Z,17.10
2018-09-23T07:28:47.947Z,17.10
2018-09-23T07:31:16.042Z,17.20
2018-09-23T07:33:44.122Z,17.30
2018-09-23T07:36:12.210Z,17.30
2018-09-23T07:38:40.299Z,17.30
2018-09-23T07:41:08.372Z,17.40
2018-09-23T07:43:36.442Z,17.40
2018-09-23T07:46:04.522Z,17.50
2018-09-23T07:48:32.601Z,17.60
2018-09-23T07:51:00.735Z,17.70
2018-09-23T07:53:28.822Z,17.80
2018-09-23T07:55:56.910Z,17.90
2018-09-23T07:58:24.990Z,18.00
2018-09-23T08:00:53.066Z,18.10
2018-09-23T08:03:21.182Z,18.30
2018-09-23T08:05:49.226Z,18.40
2018-09-23T08:08:17.298Z,18.40
2018-09-23T08:10:45.386Z,18.50
2018-09-23T08:13:13.514Z,18.60
2018-09-23T08:15:41.548Z,18.60
2018-09-23T08:18:09.632Z,18.70
2018-09-23T08:20:37.776Z,18.70
2018-09-23T08:23:05.843Z,18.70
2018-09-23T08:25:33.906Z,18.70
2018-09-23T08:28:01.966Z,18.80
2018-09-23T08:30:30.055Z,18.80
2018-09-23T08:32:58.176Z,18.70
2018-09-23T08:35:26.226Z,18.80
2018-09-23T08:37:54.340Z,18.80
2018-09-23T08:40:22.374Z,18.70
2018-09-23T08:42:50.465Z,18.80
2018-09-23T08:45:18.754Z,18.80
2018-09-23T08:47:46.961Z,18.90
2018-09-23T08:50:14.997Z,19.00
2018-09-23T08:52:43.089Z,19.00
2018-09-23T08:55:11.166Z,19.00
2018-09-23T08:57:39.332Z,19.00
2018-09-23T09:00:07.366Z,19.00
2018-09-23T09:02:35.463Z,19.00
2018-09-23T09:05:03.546Z,19.00
2018-09-23T09:07:31.630Z,19.10
2018-09-23T09:09:59.710Z,19.10
2018-09-23T09:12:27.804Z,19.20
2018-09-23T09:14:55.890Z,19.20
2018-09-23T09:17:23.978Z,19.20
2018-09-23T09:19:52.060Z,19.20
2018-09-23T09:22:20.187Z,19.30
2018-09-23T09:24:48.307Z,19.30
2018-09-23T09:27:16.614Z,19.30
2018-09-23T09:29:44.702Z,19.30
2018-09-23T09:32:12.791Z,19.30
2018-09-23T09:34:41.014Z,19.40
2018-09-23T09:37:09.098Z,19.40
2018-09-23T09:39:37.194Z,19.40
2018-09-23T09:42:05.300Z,19.40
2018-09-23T09:44:33.387Z,19.40
2018-09-23T09:47:01.482Z,19.30
2018-09-23T09:49:29.558Z,19.30
2018-09-23T09:51:57.659Z,19.30
2018-09-23T09:54:25.750Z,19.30
2018-09-23T09:56:53.831Z,19.30
2018-09-23T09:59:22.658Z,19.30
2018-09-23T10:01:51.148Z,19.30
2018-09-23T10:04:19.324Z,19.30
2018-09-23T10:06:47.362Z,19.30
2018-09-23T10:09:15.450Z,19.30
2018-09-23T10:11:43.571Z,19.40
2018-09-23T10:14:11.799Z,19.40
2018-09-23T10:16:39.874Z,19.40
2018-09-23T10:19:07.944Z,19.50
2018-09-23T10:21:36.015Z,19.50
2018-09-23T10:24:04.091Z,19.50
2018-09-23T10:26:32.179Z,19.50
2018-09-23T10:29:00.265Z,19.60
2018-09-23T10:31:28.477Z,19.60
2018-09-23T10:33:56.439Z,19.70
2018-09-23T10:36:24.516Z,19.70
2018-09-23T10:38:52.807Z,19.80
2018-09-23T10:41:20.897Z,19.80
2018-09-23T10:43:48.957Z,20.00
2018-09-23T10:46:17.043Z,20.10
2018-09-23T10:48:45.158Z,20.30
2018-09-23T10:51:13.239Z,20.40
2018-09-23T10:53:41.342Z,20.50
2018-09-23T10:56:09.490Z,20.60
2018-09-23T10:58:37.599Z,20.60
2018-09-23T11:01:05.702Z,20.70
2018-09-23T11:03:33.842Z,20.80
2018-09-23T11:06:01.867Z,20.90
2018-09-23T11:08:29.953Z,21.00
2018-09-23T11:10:58.024Z,21.00
2018-09-23T11:13:26.104Z,21.10
2018-09-23T11:15:54.181Z,21.10
2018-09-23T11:18:22.295Z,21.30
2018-09-23T11:20:50.391Z,21.40
2018-09-23T11:23:18.549Z,21.50
2018-09-23T11:25:46.615Z,21.70
2018-09-23T11:28:14.708Z,21.80
2018-09-23T11:30:42.829Z,21.90
2018-09-23T11:33:10.846Z,22.10
2018-09-23T11:35:38.918Z,22.20
2018-09-23T11:38:07.000Z,22.30
2018-09-23T11:40:35.072Z,22.40
2018-09-23T11:43:03.164Z,22.40
2018-09-23T11:45:31.230Z,22.40
2018-09-23T11:47:59.323Z,22.50
2018-09-23T11:50:27.389Z,22.50
2018-09-23T11:52:55.482Z,22.60
2018-09-23T11:55:23.558Z,22.60
2018-09-23T11:57:51.640Z,22.80
2018-09-23T12:00:19.720Z,22.90
2018-09-23T12:02:47.811Z,23.00
2018-09-23T12:05:15.894Z,23.20
2018-09-23T12:07:43.973Z,23.20
2018-09-23T12:10:12.070Z,23.10
2018-09-23T12:12:40.126Z,23.20
2018-09-23T12:15:08.221Z,23.40
2018-09-23T12:17:36.340Z,23.50
2018-09-23T12:20:04.466Z,23.50
2018-09-23T12:22:32.538Z,23.40
2018-09-23T12:25:00.666Z,23.40
2018-09-23T12:27:28.832Z,23.30
2018-09-23T12:29:56.909Z,23.30
2018-09-23T12:32:24.995Z,23.40
2018-09-23T12:34:53.071Z,23.40
2018-09-23T12:37:21.145Z,23.20
2018-09-23T12:39:49.246Z,23.20
2018-09-23T12:42:17.294Z,23.20
2018-09-23T12:44:45.364Z,23.30
2018-09-23T12:47:13.431Z,23.30
2018-09-23T12:49:41.510Z,23.30
2018-09-23T12:52:09.637Z,23.40
2018-09-23T12:54:37.715Z,23.60
2018-09-23T12:57:05.789Z,24.00
2018-09-23T12:59:33.862Z,24.40
2018-09-23T13:02:01.950Z,24.40
2018-09-23T13:04:30.030Z,24.30
2018-09-23T13:06:58.126Z,24.00
2018-09-23T13:09:26.211Z,23.90
2018-09-23T13:11:54.282Z,23.90
2018-09-23T13:14:22.582Z,23.90
2018-09-23T13:16:50.672Z,23.90
2018-09-23T13:19:18.882Z,23.80
2018-09-23T13:21:46.918Z,24.40
2018-09-23T13:24:14.994Z,24.60
2018-09-23T13:26:43.058Z,25.50
2018-09-23T13:29:11.144Z,25.90
2018-09-23T13:31:39.215Z,25.90
2018-09-23T13:34:07.462Z,26.00
2018-09-23T13:36:35.538Z,26.00
2018-09-23T13:39:04.913Z,26.20
2018-09-23T13:41:32.977Z,26.10
2018-09-23T13:44:01.061Z,25.70
2018-09-23T13:46:29.679Z,25.40
2018-09-23T13:48:57.723Z,25.40
2018-09-23T13:51:25.807Z,25.50
2018-09-23T13:53:53.898Z,25.30
2018-09-23T13:56:22.001Z,25.00
2018-09-23T13:58:50.115Z,25.30
2018-09-23T14:01:18.214Z,25.50
2018-09-23T14:03:46.323Z,25.30
2018-09-23T14:06:14.398Z,25.30
2018-09-23T14:08:42.482Z,25.30
2018-09-23T14:11:10.654Z,25.40
2018-09-23T14:13:38.741Z,25.30
2018-09-23T14:16:06.818Z,25.30
2018-09-23T14:18:34.902Z,25.20
2018-09-23T14:21:02.999Z,25.00
2018-09-23T14:23:31.326Z,25.10
2018-09-23T14:25:59.409Z,25.10
2018-09-23T14:28:27.478Z,25.00
2018-09-23T14:30:55.566Z,25.00
2018-09-23T14:33:23.639Z,24.90
2018-09-23T14:35:51.718Z,24.70
2018-09-23T14:38:19.954Z,24.50
2018-09-23T14:40:48.049Z,24.30
2018-09-23T14:43:16.124Z,24.00
2018-09-23T14:45:44.207Z,23.60
2018-09-23T14:48:12.274Z,22.60
2018-09-23T14:50:40.371Z,21.70
2018-09-23T14:53:08.822Z,21.30
2018-09-23T14:55:37.170Z,21.00
2018-09-23T14:58:05.630Z,21.00
2018-09-23T15:00:33.894Z,20.90
2018-09-23T15:03:01.899Z,20.80
2018-09-23T15:05:29.982Z,20.60
2018-09-23T15:07:58.050Z,20.20
2018-09-23T15:10:26.131Z,19.60
2018-09-23T15:12:54.203Z,19.10
2018-09-23T15:15:22.294Z,18.70
2018-09-23T15:17:50.372Z,18.50
2018-09-23T15:20:18.462Z,18.30
2018-09-23T15:22:46.542Z,18.10
2018-09-23T15:25:14.650Z,18.00
2018-09-23T15:27:42.752Z,17.90
2018-09-23T15:30:10.823Z,17.80
2018-09-23T15:32:38.909Z,17.80
2018-09-23T15:35:06.990Z,17.80
2018-09-23T15:37:35.085Z,17.80
2018-09-23T15:40:03.162Z,17.80
2018-09-23T15:42:31.260Z,17.70
2018-09-23T15:44:59.331Z,17.60
2018-09-23T15:47:27.430Z,17.50
2018-09-23T15:49:55.658Z,17.50
2018-09-23T15:52:23.745Z,17.50
2018-09-23T15:54:51.823Z,17.40
2018-09-23T15:57:19.906Z,17.40
2018-09-23T15:59:47.976Z,17.40
2018-09-23T16:02:16.066Z,17.40
2018-09-23T16:04:44.146Z,17.40
2018-09-23T16:07:12.235Z,17.40
2018-09-23T16:09:40.323Z,17.50
2018-09-23T16:12:08.401Z,17.60
2018-09-23T16:14:36.483Z,17.60
2018-09-23T16:17:04.591Z,17.60
2018-09-23T16:19:32.675Z,17.60
2018-09-23T16:22:00.759Z,17.50
2018-09-23T16:24:28.894Z,17.40
2018-09-23T16:26:56.981Z,17.30
2018-09-23T16:29:25.270Z,17.20
2018-09-23T16:31:53.381Z,17.20
2018-09-23T16:34:21.430Z,17.30
2018-09-23T16:36:49.536Z,17.20
2018-09-23T16:39:17.620Z,17.10
2018-09-23T16:41:45.690Z,17.10
2018-09-23T16:44:13.778Z,17.00
2018-09-23T16:46:41.858Z,16.90
2018-09-23T16:49:09.966Z,16.90
2018-09-23T16:51:38.044Z,16.80
2018-09-23T16:54:06.148Z,16.60
2018-09-23T16:56:34.222Z,16.50
2018-09-23T16:59:02.314Z,16.30
2018-09-23T17:01:30.584Z,16.20
2018-09-23T17:03:58.716Z,16.20
2018-09-23T17:06:26.786Z,16.10
2018-09-23T17:08:54.891Z,16.10
2018-09-23T17:11:22.963Z,16.10
2018-09-23T17:13:51.045Z,16.00
2018-09-23T17:16:19.118Z,15.80
2018-09-23T17:18:47.202Z,15.70
2018-09-23T17:21:15.280Z,15.60
2018-09-23T17:23:43.357Z,15.60
2018-09-23T17:26:11.425Z,15.50
2018-09-23T17:28:39.535Z,15.40
2018-09-23T17:31:07.570Z,15.50
2018-09-23T17:33:35.654Z,15.50
2018-09-23T17:36:03.742Z,15.30
2018-09-23T17:38:31.832Z,15.30
2018-09-23T17:40:59.980Z,15.20
2018-09-23T17:43:28.006Z,15.10
2018-09-23T17:45:56.082Z,15.20
2018-09-23T17:48:24.198Z,15.20
2018-09-23T17:50:52.281Z,15.00
2018-09-23T17:53:20.371Z,15.00
2018-09-23T17:55:48.451Z,14.90
2018-09-23T17:58:16.530Z,14.90
2018-09-23T18:00:44.610Z,14.90
2018-09-23T18:03:13.906Z,14.90
2018-09-23T18:05:42.190Z,14.80
2018-09-23T18:08:10.262Z,14.80
2018-09-23T18:10:38.346Z,14.90
2018-09-23T18:13:06.562Z,14.80
2018-09-23T18:15:34.655Z,14.80
2018-09-23T18:18:02.725Z,14.80
2018-09-23T18:20:30.814Z,14.70
2018-09-23T18:22:58.889Z,14.60
2018-09-23T18:25:26.966Z,14.60
2018-09-23T18:27:55.059Z,14.60
2018-09-23T18:30:23.511Z,14.60
2018-09-23T18:32:51.773Z,14.60
2018-09-23T18:35:19.854Z,14.60
2018-09-23T18:37:47.945Z,14.60
2018-09-23T18:40:16.021Z,14.60
2018-09-23T18:42:44.091Z,14.60
2018-09-23T18:45:12.162Z,14.60
2018-09-23T18:47:40.245Z,14.60
2018-09-23T18:50:08.334Z,14.70
2018-09-23T18:52:36.401Z,14.60
2018-09-23T18:55:10.311Z,14.60
2018-09-23T18:57:38.314Z,14.60
2018-09-23T19:00:06.506Z,14.60
2018-09-23T19:02:34.666Z,14.60
2018-09-23T19:05:02.750Z,14.50
2018-09-23T19:07:30.831Z,14.50
2018-09-23T19:09:58.970Z,14.40
2018-09-23T19:12:27.053Z,14.40
2018-09-23T19:14:55.150Z,14.40
2018-09-23T19:17:23.225Z,14.30
2018-09-23T19:19:56.654Z,14.30
2018-09-23T19:23:33.487Z,14.30
2018-09-23T19:26:01.570Z,14.30
2018-09-23T19:28:29.642Z,14.40
2018-09-23T19:30:57.736Z,14.30
2018-09-23T19:33:25.823Z,14.20
2018-09-23T19:35:53.908Z,14.20
2018-09-23T19:38:21.990Z,14.00
2018-09-23T19:40:50.070Z,13.90
2018-09-23T19:43:18.142Z,13.90
2018-09-23T19:45:46.234Z,14.00
2018-09-23T19:48:14.530Z,14.00
2018-09-23T19:50:42.613Z,13.90
2018-09-23T19:53:10.686Z,13.90
2018-09-23T19:55:38.765Z,13.80
2018-09-23T19:58:06.846Z,13.80
2018-09-23T20:00:34.922Z,13.70
2018-09-23T20:03:03.008Z,13.70
2018-09-23T20:05:31.086Z,13.60
2018-09-23T20:07:59.162Z,13.60
2018-09-23T20:10:27.246Z,13.50
2018-09-23T20:12:55.325Z,13.50
2018-09-23T20:15:23.452Z,13.50
2018-09-23T20:17:51.522Z,13.40
2018-09-23T20:20:19.636Z,13.40
2018-09-23T20:22:47.702Z,13.40
2018-09-23T20:25:16.066Z,13.40
2018-09-23T20:27:44.162Z,13.40
2018-09-23T20:30:12.268Z,13.40
2018-09-23T20:32:40.343Z,13.50
2018-09-23T20:35:08.558Z,13.40
2018-09-23T20:37:37.851Z,13.40
2018-09-23T20:40:06.168Z,13.40
2018-09-23T20:42:34.246Z,13.40
2018-09-23T20:45:02.785Z,13.40
2018-09-23T20:47:30.869Z,13.20
2018-09-23T20:49:58.962Z,13.20
2018-09-23T20:52:27.035Z,13.10
2018-09-23T20:54:55.138Z,13.10
2018-09-23T20:57:23.213Z,13.00
2018-09-23T20:59:51.311Z,12.90
2018-09-23T21:02:19.470Z,12.90
2018-09-23T21:04:47.493Z,12.80
2018-09-23T21:07:15.681Z,12.90
2018-09-23T21:09:43.766Z,12.80
2018-09-23T21:12:11.854Z,12.80
2018-09-23T21:14:39.941Z,12.80
2018-09-23T21:17:08.043Z,12.80
2018-09-23T21:19:36.170Z,12.80
2018-09-23T21:22:04.258Z,12.80
2018-09-23T21:24:32.378Z,12.90
2018-09-23T21:27:00.477Z,12.90
2018-09-23T21:29:28.547Z,13.00
2018-09-23T21:31:56.655Z,12.90
2018-09-23T21:34:24.732Z,13.00
2018-09-23T21:36:52.826Z,13.00
2018-09-23T21:39:20.902Z,13.00
2018-09-23T21:41:48.988Z,12.90
2018-09-23T21:44:17.069Z,12.70
2018-09-23T21:46:45.149Z,12.70
2018-09-23T21:49:13.264Z,12.60
2018-09-23T21:51:41.346Z,12.40
2018-09-23T21:54:09.426Z,12.40
2018-09-23T21:56:37.514Z,12.30
2018-09-23T21:59:05.593Z,12.40
2018-09-23T22:01:33.673Z,12.40
2018-09-23T22:04:02.011Z,12.40
2018-09-23T22:06:30.094Z,12.50
2018-09-23T22:08:58.185Z,12.50
2018-09-23T22:11:26.278Z,12.50
2018-09-23T22:13:54.356Z,12.50
2018-09-23T22:16:22.455Z,12.50
2018-09-23T22:18:50.534Z,12.40
2018-09-23T22:21:18.618Z,12.40
2018-09-23T22:23:46.705Z,12.40
2018-09-23T22:26:14.790Z,12.40
2018-09-23T22:28:42.886Z,12.40
2018-09-23T22:31:11.122Z,12.50
2018-09-23T22:33:39.218Z,12.50
2018-09-23T22:36:07.310Z,12.50
2018-09-23T22:38:35.574Z,12.60
2018-09-23T22:41:03.672Z,12.50
2018-09-23T22:43:31.749Z,12.50
2018-09-23T22:45:59.833Z,12.50
2018-09-23T22:48:27.923Z,12.50
2018-09-23T22:50:56.018Z,12.50
2018-09-23T22:53:24.113Z,12.50
2018-09-23T22:55:52.181Z,12.40
2018-09-23T22:58:20.277Z,12.40
2018-09-23T23:00:48.352Z,12.30
2018-09-23T23:03:16.438Z,12.30
2018-09-23T23:05:44.515Z,12.30
2018-09-23T23:08:12.593Z,12.30
2018-09-23T23:10:40.691Z,12.30
2018-09-23T23:13:08.782Z,12.30
2018-09-23T23:15:36.870Z,12.40
2018-09-23T23:18:04.970Z,12.40
2018-09-23T23:20:33.041Z,12.40
2018-09-23T23:23:01.130Z,12.30
2018-09-23T23:25:29.210Z,12.40
2018-09-23T23:27:57.310Z,12.30
2018-09-23T23:30:25.400Z,12.40
2018-09-23T23:32:53.496Z,12.30
2018-09-23T23:35:21.575Z,12.20
2018-09-23T23:37:49.666Z,12.20
2018-09-23T23:40:17.762Z,12.20
2018-09-23T23:42:45.850Z,12.20
2018-09-23T23:45:13.939Z,12.20
2018-09-23T23:47:42.250Z,12.20
2018-09-23T23:50:10.329Z,12.20
2018-09-23T23:52:38.442Z,12.20
2018-09-23T23:55:06.558Z,12.20
2018-09-23T23:57:34.650Z,12.20
